.
WxDataArchive / Data Records for 2009-06-26
2009-06-25 June 2009 2009-06-27

Data Records for Friday, 26 June 2009

Time	Temp	Chill	HIndex	Humid	Dewpt	 Wind 	HiWind	WindDir	Rain 	Barom 
-----	----	-----	------	-----	-----	------	------	-------	-----	----- 
00:00	77.4	77.4	79.3	78	70.0	3	6	90	0.00	29.734 
00:05	76.7	76.7	78.1	79	69.7	2	6	90	0.00	29.734 
00:10	76.1	76.1	77.1	80	69.5	1	4	90	0.00	29.734 
00:15	75.8	75.8	76.6	81	69.5	2	4	112	0.00	29.736 
00:20	75.4	75.4	76.0	81	69.1	2	6	90	0.00	29.736 
00:25	75.3	75.3	75.9	81	69.1	2	5	90	0.00	29.736 
00:30	75.1	75.1	75.6	81	68.9	1	3	90	0.00	29.741 
00:35	75.1	75.1	75.6	81	68.9	1	5	90	0.00	29.741 
00:40	74.9	74.9	74.9	81	68.7	1	5	90	0.00	29.741 
00:45	75.1	75.1	75.6	81	68.9	1	3	270	0.00	29.763 
00:50	74.9	74.9	74.9	82	69.0	1	4	270	0.00	29.763 
00:55	74.9	74.9	74.9	82	69.0	0	1	270	0.00	29.763 
01:00	74.9	74.9	74.9	84	69.7	1	3	270	0.00	29.745 
01:05	74.9	74.9	74.9	84	69.7	0	2	270	0.00	29.745 
01:10	74.7	74.7	74.7	85	69.9	0	2	270	0.00	29.745 
01:15	74.7	74.7	74.7	85	69.9	1	2	270	0.00	29.747 
01:20	74.6	74.6	74.6	84	69.4	1	6	112	0.00	29.747 
01:25	74.6	74.6	74.6	85	69.8	1	5	90	0.00	29.747 
01:30	74.4	74.4	74.4	85	69.6	1	4	90	0.00	29.744 
01:35	74.2	74.2	74.2	85	69.4	0	3	90	0.00	29.744 
01:40	74.2	74.2	74.2	87	70.1	0	1	90	0.01	29.744 
01:45	74.0	74.0	74.0	87	69.9	0	0	---	0.04	29.748 
01:50	73.9	73.9	73.9	88	70.1	0	0	---	0.01	29.748 
01:55	73.7	73.7	73.7	89	70.2	0	0	---	0.00	29.748 
02:00	73.5	73.5	73.5	90	70.4	0	0	---	0.00	29.746 
02:05	73.3	73.3	73.3	91	70.5	0	1	90	0.00	29.746 
02:10	73.2	73.2	73.2	91	70.4	0	0	---	0.00	29.746 
02:15	73.0	73.0	73.0	92	70.5	0	0	---	0.00	29.742 
02:20	73.0	73.0	73.0	92	70.5	0	0	---	0.00	29.742 
02:25	72.8	72.8	72.8	92	70.3	0	0	---	0.00	29.742 
02:30	73.0	73.0	73.0	93	70.8	0	1	90	0.00	29.738 
02:35	72.8	72.8	72.8	93	70.7	0	1	90	0.00	29.738 
02:40	72.7	72.7	72.7	93	70.6	0	0	---	0.00	29.738 
02:45	72.5	72.5	72.5	93	70.4	0	0	---	0.00	29.733 
02:50	72.3	72.3	72.3	93	70.2	0	0	---	0.00	29.733 
02:55	72.1	72.1	72.1	93	70.0	0	0	---	0.00	29.733 
03:00	72.1	72.1	72.1	93	70.0	0	0	---	0.00	29.734 
03:05	72.1	72.1	72.1	93	70.0	0	0	---	0.00	29.734 
03:10	72.0	72.0	72.0	94	70.2	0	0	---	0.00	29.734 
03:15	72.1	72.1	72.1	94	70.3	0	0	---	0.00	29.740 
03:20	72.1	72.1	72.1	94	70.3	0	0	---	0.00	29.740 
03:25	72.1	72.1	72.1	94	70.3	0	0	---	0.00	29.740 
03:30	72.3	72.3	72.3	94	70.5	0	0	---	0.00	29.743 
03:35	72.3	72.3	72.3	94	70.5	0	0	---	0.00	29.743 
03:40	72.3	72.3	72.3	95	70.8	0	0	---	0.00	29.743 
03:45	72.5	72.5	72.5	95	71.0	0	1	90	0.00	29.740 
03:50	72.5	72.5	72.5	95	71.0	0	1	90	0.00	29.740 
03:55	72.5	72.5	72.5	95	71.0	0	0	---	0.00	29.740 
04:00	72.3	72.3	72.3	95	70.8	0	0	---	0.00	29.735 
04:05	72.3	72.3	72.3	95	70.8	0	0	---	0.00	29.735 
04:10	72.3	72.3	72.3	95	70.8	0	0	---	0.00	29.735 
04:15	72.5	72.5	72.5	95	71.0	0	0	---	0.00	29.733 
04:20	72.5	72.5	72.5	95	71.0	0	0	---	0.00	29.733 
04:25	72.5	72.5	72.5	95	71.0	0	0	---	0.00	29.733 
04:30	72.3	72.3	72.3	95	70.8	0	0	---	0.00	29.734 
04:35	72.5	72.5	72.5	95	71.0	0	1	90	0.00	29.734 
04:40	72.5	72.5	72.5	95	71.0	0	0	---	0.00	29.734 
04:45	72.3	72.3	72.3	95	70.8	0	0	---	0.00	29.738 
04:50	72.1	72.1	72.1	95	70.6	0	1	90	0.00	29.738 
04:55	72.1	72.1	72.1	95	70.6	0	1	90	0.00	29.738 
05:00	72.0	72.0	72.0	95	70.5	0	1	90	0.00	29.745 
05:05	72.0	72.0	72.0	95	70.5	0	0	---	0.00	29.745 
05:10	72.0	72.0	72.0	95	70.5	0	0	---	0.00	29.745 
05:15	72.0	72.0	72.0	95	70.5	0	1	90	0.00	29.748 
05:20	72.0	72.0	72.0	95	70.5	0	0	---	0.00	29.748 
05:25	71.8	71.8	71.8	95	70.3	0	0	---	0.00	29.748 
05:30	71.8	71.8	71.8	95	70.3	0	0	---	0.00	29.748 
05:35	71.6	71.6	71.6	95	70.1	0	1	90	0.00	29.748 
05:40	71.6	71.6	71.6	95	70.1	0	1	90	0.00	29.748 
05:45	71.5	71.5	71.5	95	70.0	0	0	---	0.00	29.749 
05:50	71.5	71.5	71.5	95	70.0	0	1	90	0.00	29.749 
05:55	71.3	71.3	71.3	95	69.8	0	0	---	0.00	29.749 
06:00	71.1	71.1	71.1	95	69.6	0	0	---	0.00	29.757 
06:05	70.9	70.9	70.9	95	69.4	0	0	---	0.00	29.757 
06:10	70.9	70.9	70.9	95	69.4	0	0	---	0.00	29.757 
06:15	70.9	70.9	70.9	96	69.7	0	0	---	0.00	29.755 
06:20	71.1	71.1	71.1	96	69.9	0	0	---	0.00	29.755 
06:25	71.1	71.1	71.1	96	69.9	0	0	---	0.00	29.755 
06:30	71.1	71.1	71.1	96	69.9	0	1	90	0.00	29.758 
06:35	70.9	70.9	70.9	96	69.7	0	0	---	0.00	29.758 
06:40	70.9	70.9	70.9	96	69.7	0	1	45	0.00	29.758 
06:45	70.9	70.9	70.9	96	69.7	0	0	---	0.00	29.762 
06:50	70.9	70.9	70.9	96	69.7	0	0	---	0.00	29.762 
06:55	70.9	70.9	70.9	96	69.7	0	0	---	0.01	29.762 
07:00	71.1	71.1	71.1	96	69.9	0	0	---	0.00	29.765 
07:05	71.1	71.1	71.1	96	69.9	0	0	---	0.00	29.765 
07:10	71.3	71.3	71.3	96	70.1	0	1	68	0.00	29.765 
07:15	71.3	71.3	71.3	96	70.1	0	1	68	0.00	29.777 
07:20	71.5	71.5	71.5	96	70.3	0	1	0	0.00	29.777 
07:25	71.6	71.6	71.6	96	70.4	0	1	0	0.00	29.777 
07:30	71.8	71.8	71.8	96	70.6	0	0	---	0.00	29.779 
07:35	72.0	72.0	72.0	96	70.8	0	1	0	0.00	29.779 
07:40	72.0	72.0	72.0	96	70.8	0	1	0	0.00	29.779 
07:45	72.1	72.1	72.1	96	70.9	0	1	338	0.00	29.780 
07:50	72.5	72.5	72.5	96	71.3	0	1	338	0.00	29.780 
07:55	72.7	72.7	72.7	96	71.5	0	1	338	0.00	29.780 
08:00	72.8	72.8	72.8	96	71.6	0	1	338	0.00	29.780 
08:05	73.0	73.0	73.0	95	71.5	0	1	338	0.00	29.780 
08:10	73.2	73.2	73.2	95	71.7	0	2	338	0.00	29.780 
08:15	73.3	73.3	73.3	95	71.8	0	2	338	0.00	29.784 
08:20	73.7	73.7	73.7	94	71.9	0	1	338	0.00	29.784 
08:25	74.0	74.0	74.0	93	71.8	0	1	338	0.00	29.784 
08:30	74.4	74.4	74.4	92	71.9	0	1	338	0.00	29.782 
08:35	74.6	74.6	74.6	91	71.8	0	2	338	0.00	29.782 
08:40	75.1	75.1	74.4	89	71.6	0	1	338	0.00	29.782 
08:45	75.4	75.4	75.1	88	71.6	0	1	338	0.00	29.784 
08:50	75.6	75.6	75.9	85	70.8	0	1	338	0.00	29.784 
08:55	76.3	76.3	77.1	85	71.4	0	1	338	0.00	29.784 
09:00	76.5	76.5	77.6	83	70.9	0	1	338	0.00	29.787 
09:05	76.8	76.8	78.2	81	70.5	1	2	338	0.00	29.787 
09:10	77.4	77.4	79.2	81	71.1	0	1	338	0.00	29.787 
09:15	77.7	77.7	79.7	77	69.9	0	1	338	0.00	29.791 
09:20	78.1	78.1	80.4	77	70.3	0	1	338	0.00	29.791 
09:25	78.5	78.5	81.0	75	69.9	0	1	338	0.00	29.791 
09:30	78.8	78.8	81.4	74	69.8	0	1	338	0.00	29.791 
09:35	79.4	79.4	82.5	75	70.8	0	2	338	0.00	29.791 
09:40	79.6	79.6	82.4	71	69.3	0	2	0	0.00	29.791 
09:45	79.9	79.9	83.0	72	70.0	0	1	292	0.00	29.794 
09:50	80.1	80.1	83.2	71	69.8	1	2	292	0.00	29.794 
09:55	80.3	80.3	83.7	72	70.4	0	2	292	0.00	29.794 
10:00	80.9	80.9	84.8	72	71.0	0	3	135	0.00	29.790 
10:05	81.1	81.1	84.6	69	69.9	0	2	180	0.00	29.790 
10:10	81.6	81.6	85.5	69	70.4	0	1	202	0.00	29.790 
10:15	82.2	82.2	85.3	63	68.3	0	3	270	0.00	29.792 
10:20	82.6	82.6	85.5	61	67.8	0	1	270	0.00	29.792 
10:25	83.0	83.0	86.4	62	68.6	1	2	270	0.00	29.792 
10:30	83.2	83.2	86.0	59	67.4	0	3	270	0.00	29.794 
10:35	83.2	83.2	85.8	58	66.9	0	4	315	0.00	29.794 
10:40	83.2	83.2	85.8	58	66.9	0	1	315	0.00	29.794 
10:45	83.4	83.4	86.1	58	67.0	0	2	315	0.00	29.796 
10:50	83.8	83.8	86.7	58	67.4	0	2	338	0.00	29.796 
10:55	84.1	84.1	86.9	57	67.2	0	2	338	0.00	29.796 
11:00	84.7	84.7	87.9	57	67.7	0	2	338	0.00	29.802 
11:05	84.9	84.9	87.3	54	66.4	0	3	0	0.00	29.802 
11:10	84.9	84.9	87.3	54	66.4	0	2	0	0.00	29.802 
11:15	84.9	84.9	87.9	56	67.4	0	3	90	0.00	29.804 
11:20	85.1	85.1	88.2	56	67.6	1	5	90	0.00	29.804 
11:25	84.9	84.9	87.9	56	67.4	1	3	315	0.00	29.804 
11:30	85.1	85.1	87.9	55	67.1	1	3	292	0.00	29.809 
11:35	85.3	85.3	88.0	54	66.7	0	2	315	0.00	29.809 
11:40	85.7	85.7	88.6	54	67.1	1	4	112	0.00	29.809 
11:45	86.1	86.1	89.2	54	67.5	0	3	68	0.00	29.809 
11:50	86.3	86.3	89.6	54	67.7	1	5	112	0.00	29.809 
11:55	86.3	86.3	89.3	53	67.1	0	2	68	0.00	29.809 
12:00	86.3	86.3	89.9	55	68.2	1	4	68	0.00	29.810 
12:05	86.3	86.3	88.3	50	65.4	1	5	45	0.00	29.810 
12:10	86.3	86.3	88.3	50	65.4	1	3	90	0.00	29.810 
12:15	86.1	86.1	88.0	50	65.3	0	2	248	0.00	29.810 
12:20	86.1	86.1	88.3	51	65.8	1	3	248	0.00	29.810 
12:25	86.5	86.5	88.3	49	65.0	0	2	248	0.00	29.810 
12:30	87.0	87.0	88.8	48	64.9	1	3	270	0.00	29.807 
12:35	86.7	86.7	87.8	46	63.4	0	2	292	0.00	29.807 
12:40	87.0	87.0	88.8	48	64.9	0	2	292	0.00	29.807 
12:45	87.0	87.0	88.5	47	64.3	1	2	292	0.00	29.810 
12:50	87.0	87.0	87.6	44	62.4	1	3	292	0.00	29.810 
12:55	87.4	87.4	88.8	46	64.0	1	3	292	0.00	29.810 
13:00	87.6	87.6	88.2	43	62.3	0	2	292	0.00	29.807 
13:05	87.6	87.6	88.5	44	63.0	1	4	45	0.00	29.807 
13:10	87.8	87.8	87.6	40	60.4	1	4	338	0.00	29.807 
13:15	87.2	87.2	86.9	40	59.9	1	4	292	0.00	29.811 
13:20	87.0	87.0	87.6	44	62.4	1	5	292	0.00	29.811 
13:25	87.4	87.4	89.4	48	65.3	1	3	292	0.00	29.811 
13:30	87.4	87.4	89.4	48	65.3	1	2	292	0.00	29.808 
13:35	86.3	86.3	86.7	44	61.8	1	3	338	0.00	29.808 
13:40	86.3	86.3	87.8	48	64.3	1	2	338	0.00	29.808 
13:45	86.7	86.7	87.8	46	63.4	1	2	315	0.00	29.807 
13:50	87.0	87.0	88.2	46	63.7	1	3	315	0.00	29.807 
13:55	85.9	85.9	86.9	47	63.3	1	4	22	0.00	29.807 
14:00	86.1	86.1	87.8	49	64.7	0	2	22	0.00	29.801 
14:05	86.7	86.7	88.1	47	64.0	1	3	315	0.00	29.801 
14:10	87.2	87.2	87.6	43	61.9	1	4	45	0.00	29.801 
14:15	87.4	87.4	87.9	43	62.1	1	3	292	0.00	29.805 
14:20	86.7	86.7	87.0	43	61.5	1	3	292	0.00	29.805 
14:25	87.0	87.0	87.9	45	63.1	1	2	315	0.00	29.805 
14:30	85.9	85.9	86.7	46	62.7	0	3	338	0.00	29.806 
14:35	85.7	85.7	87.2	49	64.3	0	2	338	0.00	29.806 
14:40	86.1	86.1	87.2	47	63.5	0	3	338	0.00	29.806 
14:45	86.7	86.7	87.0	43	61.5	0	2	315	0.00	29.809 
14:50	87.4	87.4	88.2	44	62.8	1	3	315	0.00	29.809 
14:55	87.2	87.2	87.4	42	61.3	1	4	315	0.00	29.809 
15:00	86.5	86.5	86.7	43	61.3	1	2	315	0.00	29.810 
15:05	87.0	87.0	86.4	39	59.0	1	4	315	0.00	29.810 
15:10	87.2	87.2	86.9	40	59.9	1	5	315	0.00	29.810 
15:15	87.6	87.6	87.4	40	60.3	0	2	248	0.00	29.811 
15:20	87.4	87.4	86.9	39	59.4	0	2	292	0.00	29.811 
15:25	87.8	87.8	87.9	41	61.1	0	1	315	0.00	29.811 
15:30	87.0	87.0	86.6	40	59.7	1	4	270	0.00	29.812 
15:35	86.7	86.7	87.0	43	61.5	0	2	248	0.00	29.812 
15:40	87.0	87.0	86.0	37	57.5	1	5	270	0.00	29.812 
15:45	87.6	87.6	87.6	41	60.9	0	3	270	0.00	29.815 
15:50	88.0	88.0	87.1	37	58.4	0	4	338	0.00	29.815 
15:55	87.6	87.6	86.7	37	58.1	0	2	338	0.00	29.815 
16:00	88.0	88.0	87.9	40	60.6	1	3	338	0.00	29.812 
16:05	88.2	88.2	87.2	36	57.8	1	4	68	0.00	29.812 
16:10	88.2	88.2	86.3	32	54.6	0	2	0	0.00	29.812 
16:15	88.0	88.0	86.7	35	56.9	1	3	292	0.00	29.809 
16:20	88.0	88.0	86.3	33	55.2	1	5	292	0.00	29.809 
16:25	87.6	87.6	86.2	35	56.5	0	3	292	0.00	29.809 
16:30	87.4	87.4	85.4	32	53.9	0	3	0	0.00	29.813 
16:35	87.4	87.4	86.7	38	58.6	0	2	315	0.00	29.813 
16:40	88.0	88.0	87.6	39	59.9	0	3	338	0.00	29.813 
16:45	88.6	88.6	86.6	31	54.1	1	3	338	0.00	29.815 
16:50	89.0	89.0	87.7	34	56.9	1	4	270	0.00	29.815 
16:55	88.6	88.6	87.2	34	56.6	0	4	270	0.00	29.815 
17:00	88.4	88.4	86.9	34	56.4	1	3	315	0.00	29.815 
17:05	88.4	88.4	87.2	35	57.2	1	2	292	0.00	29.815 
17:10	88.4	88.4	86.7	33	55.6	1	4	292	0.00	29.815 
17:15	88.6	88.6	87.0	33	55.8	0	2	315	0.00	29.816 
17:20	88.6	88.6	87.2	34	56.6	0	2	338	0.00	29.816 
17:25	88.4	88.4	87.2	35	57.2	1	3	338	0.00	29.816 
17:30	88.2	88.2	87.2	36	57.8	1	2	338	0.00	29.817 
17:35	87.2	87.2	85.8	35	56.2	1	4	22	0.00	29.817 
17:40	87.0	87.0	85.8	36	56.8	1	3	292	0.00	29.817 
17:45	87.2	87.2	85.8	35	56.2	0	2	292	0.00	29.816 
17:50	87.4	87.4	86.0	35	56.3	0	2	292	0.00	29.816 
17:55	87.8	87.8	86.5	35	56.7	1	3	270	0.00	29.816 
18:00	87.8	87.8	86.1	33	55.1	0	2	315	0.00	29.813 
18:05	87.8	87.8	86.5	35	56.7	1	3	315	0.00	29.813 
18:10	87.6	87.6	86.2	35	56.5	0	3	315	0.00	29.813 
18:15	87.2	87.2	85.6	34	55.4	1	3	315	0.00	29.811 
18:20	87.0	87.0	85.4	34	55.2	1	2	315	0.00	29.811 
18:25	86.7	86.7	85.4	36	56.5	0	1	315	0.00	29.811 
18:30	86.3	86.3	84.8	35	55.4	0	2	315	0.00	29.807 
18:35	85.9	85.9	84.7	37	56.6	0	2	338	0.00	29.807 
18:40	85.1	85.1	84.3	39	57.3	0	1	338	0.00	29.807 
18:45	84.7	84.7	83.7	38	56.2	0	3	338	0.00	29.807 
18:50	84.9	84.9	84.0	39	57.1	0	1	112	0.00	29.807 
18:55	84.9	84.9	84.0	39	57.1	0	2	112	0.00	29.807 
19:00	84.9	84.9	84.0	39	57.1	0	2	315	0.00	29.803 
19:05	84.9	84.9	84.2	40	57.8	0	1	315	0.00	29.803 
19:10	84.7	84.7	84.0	40	57.7	0	1	315	0.00	29.803 
19:15	84.5	84.5	83.8	40	57.5	0	2	315	0.00	29.802 
19:20	84.5	84.5	83.8	40	57.5	0	2	315	0.00	29.802 
19:25	84.5	84.5	84.0	41	58.2	0	1	315	0.00	29.802 
19:30	84.3	84.3	83.6	40	57.3	0	4	270	0.00	29.808 
19:35	84.3	84.3	83.4	39	56.6	0	2	292	0.00	29.808 
19:40	84.1	84.1	83.4	40	57.1	0	2	292	0.00	29.808 
19:45	84.0	84.0	83.3	40	57.0	0	2	248	0.00	29.805 
19:50	83.8	83.8	83.2	41	57.6	0	1	248	0.00	29.805 
19:55	83.6	83.6	83.4	43	58.7	0	2	248	0.00	29.805 
20:00	83.4	83.4	83.2	43	58.5	0	1	248	0.00	29.807 
20:05	83.0	83.0	82.6	42	57.5	0	2	292	0.00	29.807 
20:10	82.8	82.8	82.6	43	58.0	0	1	292	0.00	29.807 
20:15	82.6	82.6	82.2	42	57.2	0	2	292	0.00	29.811 
20:20	82.4	82.4	82.2	43	57.6	0	1	292	0.00	29.811 
20:25	82.2	82.2	82.0	43	57.4	0	1	292	0.00	29.811 
20:30	81.8	81.8	81.8	44	57.7	0	1	292	0.00	29.813 
20:35	81.6	81.6	81.7	45	58.2	0	0	---	0.00	29.813 
20:40	81.4	81.4	81.5	45	58.0	0	1	292	0.00	29.813 
20:45	81.1	81.1	81.4	46	58.3	0	0	---	0.00	29.814 
20:50	80.9	80.9	81.2	46	58.2	0	1	292	0.00	29.814 
20:55	80.5	80.5	80.7	45	57.2	0	0	---	0.00	29.814 
21:00	80.3	80.3	80.5	44	56.4	0	1	292	0.00	29.819 
21:05	80.1	80.1	80.4	45	56.8	0	1	292	0.00	29.819 
21:10	79.8	79.8	80.2	45	56.5	0	0	---	0.00	29.819 
21:15	79.4	79.4	79.9	45	56.2	0	0	---	0.00	29.820 
21:20	78.8	78.8	79.6	46	56.2	0	0	---	0.00	29.820 
21:25	78.5	78.5	79.4	47	56.6	0	0	---	0.00	29.820 
21:30	77.9	77.9	79.0	47	56.0	0	0	---	0.00	29.823 
21:35	77.6	77.6	78.8	47	55.8	0	0	---	0.00	29.823 
21:40	77.2	77.2	78.7	48	56.0	0	0	---	0.00	29.823 
21:45	76.7	76.7	78.4	50	56.6	0	0	---	0.00	29.830 
21:50	76.3	76.3	78.2	50	56.3	0	0	---	0.00	29.830 
21:55	76.0	76.0	78.1	50	56.0	0	0	---	0.00	29.830 
22:00	75.8	75.8	78.0	51	56.4	0	0	---	0.00	29.836 
22:05	75.4	75.4	77.8	52	56.5	0	0	---	0.00	29.836 
22:10	75.3	75.3	77.7	54	57.5	0	0	---	0.00	29.836 
22:15	75.3	75.3	77.7	54	57.5	0	0	---	0.00	29.837 
22:20	75.1	75.1	77.6	55	57.8	0	0	---	0.00	29.837 
22:25	74.9	74.9	74.9	56	58.1	0	0	---	0.00	29.837 
22:30	74.7	74.7	74.7	57	58.4	0	0	---	0.00	29.836 
22:35	74.6	74.6	74.6	58	58.8	0	0	---	0.00	29.836 
22:40	74.6	74.6	74.6	59	59.3	0	0	---	0.00	29.836 
22:45	74.4	74.4	74.4	60	59.6	0	0	---	0.00	29.844 
22:50	74.2	74.2	74.2	60	59.4	0	0	---	0.00	29.844 
22:55	74.0	74.0	74.0	60	59.2	0	0	---	0.00	29.844 
23:00	74.0	74.0	74.0	61	59.7	0	0	---	0.00	29.845 
23:05	73.9	73.9	73.9	61	59.6	0	0	---	0.00	29.845 
23:10	73.7	73.7	73.7	62	59.9	0	0	---	0.00	29.845 
23:15	73.5	73.5	73.5	62	59.7	0	0	---	0.00	29.845 
23:20	73.3	73.3	73.3	63	59.9	0	0	---	0.00	29.845 
23:25	73.2	73.2	73.2	63	59.8	0	0	---	0.00	29.845 
23:30	73.0	73.0	73.0	64	60.1	0	0	---	0.00	29.845 
23:35	72.8	72.8	72.8	64	59.9	0	0	---	0.00	29.845 
23:40	72.7	72.7	72.7	65	60.2	0	0	---	0.00	29.845 
23:45	72.5	72.5	72.5	65	60.0	0	0	---	0.00	29.846 
23:50	72.3	72.3	72.3	66	60.3	0	0	---	0.00	29.846 
23:55	72.0	72.0	72.0	66	60.0	0	0	---	0.00	29.846 

CoCoRaHS
IN-AL-39
A2 Web Hosting
Creative Commons License
GoDaddy
search engine by freefind advanced

loaded 2018-11-13 02:29:40 • last modified 2010-11-18 10:43:29
Privacy PolicyDisclaimer
• wx.awcolley.com is powered by PmWiki v.2002016 •
• all content (unless otherwise noted) © 2018 A W Colley